UAAA

Almaty Airport

Almaty, Kazakhstan
TAF UAAA 210500Z 2106/2206 35005MPS 9999 SCT050CB BKN100 TX33/2109Z TN17/2201Z PROB40 TEMPO 2109/2114 TS BECMG 2115/2116 16005MPS TEMPO 2115/2118 5000 FU
Issued Valid From Valid To
Jul-21 @ 05:00 UTC
(5 hours ago)
Jul-21 @ 06:00 UTC
(4 hours ago)
Jul-22 @ 06:00 UTC
(in 20 hours)
Jul-21 @ 06:00 to Jul-21 @ 15:00
TAF UAAA 210500Z 2106/2206 35005MPS 9999 SCT050CB BKN100 TX33/2109Z TN17/2201Z
Wind Visibility Clouds
350° at 10 knots 10,000+ meters
  • Scattered at 5,000' AGL
  • Broken at 10,000' AGL
Temporary  (Probability 40%) Jul-21 @ 09:00 to Jul-21 @ 14:00
PROB40 TEMPO 2109/2114 TS
Conditions
  • Thunderstorm
Temporary Jul-21 @ 15:00 to Jul-21 @ 18:00
TEMPO 2115/2118 5000 FU
Visibility Conditions
5,005 meters
  • Smoke
Becoming Jul-21 @ 15:00 to Jul-22 @ 06:00
BECMG 2115/2116 16005MPS
Wind Visibility Clouds
160° at 10 knots 10,000+ meters
  • Scattered at 5,000' AGL
  • Broken at 10,000' AGL
TAF UAAA 210500Z 2106/2206 35005MPS 9999 SCT050CB BKN100 TX33/2109Z TN17/2201Z PROB40 TEMPO 2109/2114 TS BECMG 2115/2116 16005MPS TEMPO 2115/2118 5000 FU
Issued Jul-21 @ 05:00 UTC
(5 hours ago)
Valid From Jul-21 @ 06:00 UTC
(4 hours ago)
Valid To Jul-22 @ 06:00 UTC
(in 20 hours)
Jul-21 @ 06:00 - Jul-21 @ 15:00
Wind Visibility
350° at 10 knots 10,000+ meters
Clouds
  • Scattered at 5,000' AGL
  • Broken at 10,000' AGL
Probability 40% Temporary Jul-21 @ 09:00 - Jul-21 @ 14:00
Conditions
  • Thunderstorm
Temporary Jul-21 @ 15:00 - Jul-21 @ 18:00
Conditions
  • Smoke
Becoming Jul-21 @ 15:00 - Jul-22 @ 06:00
Wind Visibility
160° at 10 knots 10,000+ meters
Clouds
  • Scattered at 5,000' AGL
  • Broken at 10,000' AGL